Time;durP1;ratioP1;P1;durP2;ratioP2;P2;SDS_P1;SDS_P2;PMS_P1;PMS_P2;Temp;Humidity;BMP_temperature;BMP_pressure;BME280_temperature;BME280_humidity;BME280_pressure;Samples;Min_cycle;Max_cycle;Signal;HPM_P1;HPM_P2
2024/03/09 00:00:19;;;;;;;23.80;13.57;;;4.70;99.90;;;;;;4159657;28;20045;-61
2024/03/09 00:02:20;;;;;;;23.27;13.70;;;4.70;99.90;;;;;;4160161;28;20029;-59
2024/03/09 00:04:22;;;;;;;24.20;13.13;;;4.70;99.90;;;;;;4159383;28;20099;-61
2024/03/09 00:06:23;;;;;;;25.77;14.73;;;4.70;99.90;;;;;;4161024;28;20096;-59
2024/03/09 00:08:25;;;;;;;25.73;14.40;;;4.70;99.90;;;;;;4160041;28;20049;-61
2024/03/09 00:10:28;;;;;;;24.93;13.73;;;4.70;99.90;;;;;;4159427;28;20053;-58
2024/03/09 00:12:29;;;;;;;24.93;14.60;;;4.70;99.90;;;;;;4160502;28;20029;-61
2024/03/09 00:14:30;;;;;;;29.33;16.60;;;4.70;99.90;;;;;;4160263;28;20021;-56
2024/03/09 00:16:34;;;;;;;30.10;15.43;;;4.70;99.90;;;;;;4161241;28;20076;-58
2024/03/09 00:18:35;;;;;;;24.33;14.10;;;4.70;99.90;;;;;;4159630;28;20049;-56
2024/03/09 00:20:37;;;;;;;28.97;16.53;;;4.60;99.90;;;;;;4160481;28;20041;-60
2024/03/09 00:22:39;;;;;;;27.30;14.77;;;4.70;99.90;;;;;;4159714;28;20041;-60
2024/03/09 00:24:41;;;;;;;27.70;14.90;;;4.60;99.90;;;;;;4160552;28;20033;-56
2024/03/09 00:26:43;;;;;;;29.57;15.77;;;4.60;99.90;;;;;;4159340;28;20049;-56
2024/03/09 00:28:45;;;;;;;26.30;14.00;;;4.60;99.90;;;;;;4160824;28;20037;-54
2024/03/09 00:30:46;;;;;;;26.07;15.70;;;4.50;99.90;;;;;;4157657;28;20441;-58
2024/03/09 00:32:50;;;;;;;25.03;13.60;;;4.50;99.90;;;;;;4160667;28;20038;-61
2024/03/09 00:34:52;;;;;;;21.27;12.80;;;4.50;99.90;;;;;;4159240;28;20075;-57
2024/03/09 00:36:53;;;;;;;25.33;14.47;;;4.50;99.90;;;;;;4160704;28;20026;-57
2024/03/09 00:38:55;;;;;;;20.73;12.60;;;4.50;99.90;;;;;;4159621;28;20433;-58
2024/03/09 00:40:56;;;;;;;25.00;14.00;;;4.50;99.90;;;;;;4159605;28;20100;-60
2024/03/09 00:43:07;;;;;;;32.03;15.47;;;4.40;99.90;;;;;;4163238;28;20025;-53
2024/03/09 00:45:09;;;;;;;28.17;15.40;;;4.40;99.90;;;;;;4162274;28;20440;-57
2024/03/09 00:47:10;;;;;;;32.50;16.10;;;4.30;99.90;;;;;;4163599;28;20462;-58
2024/03/09 00:49:13;;;;;;;28.23;15.30;;;4.30;99.90;;;;;;4163059;28;20045;-60
2024/03/09 00:51:14;;;;;;;29.00;15.20;;;4.30;99.90;;;;;;4162969;28;20054;-58
2024/03/09 00:53:17;;;;;;;23.67;13.50;;;4.20;99.90;;;;;;4162762;28;20346;-57
2024/03/09 00:55:19;;;;;;;22.87;13.07;;;4.20;99.90;;;;;;4162848;28;20274;-51
2024/03/09 00:57:23;;;;;;;23.07;13.13;;;4.10;99.90;;;;;;4161649;28;20278;-58
2024/03/09 00:59:25;;;;;;;22.40;12.43;;;4.10;99.90;;;;;;4163858;28;20037;-60
2024/03/09 01:01:28;;;;;;;24.23;13.47;;;4.00;99.90;;;;;;4162542;28;20746;-59
2024/03/09 01:03:31;;;;;;;24.43;13.87;;;4.00;99.90;;;;;;4163489;28;20278;-58
2024/03/09 01:05:33;;;;;;;26.37;14.57;;;4.00;99.90;;;;;;4161461;28;20362;-60
2024/03/09 01:07:35;;;;;;;24.43;14.13;;;4.00;99.90;;;;;;4163653;28;20965;-61
2024/03/09 01:09:36;;;;;;;22.13;13.53;;;4.00;99.90;;;;;;4161726;28;20267;-61
2024/03/09 01:11:38;;;;;;;32.50;16.07;;;3.90;99.90;;;;;;4162527;28;20263;-58
2024/03/09 01:13:39;;;;;;;37.00;18.40;;;4.00;99.90;;;;;;4162314;28;20263;-57
2024/03/09 01:15:40;;;;;;;38.53;19.10;;;4.00;99.90;;;;;;4162699;28;20037;-59
2024/03/09 01:17:42;;;;;;;35.37;19.27;;;3.90;99.90;;;;;;4161903;28;20279;-60
2024/03/09 01:19:45;;;;;;;35.87;18.70;;;3.90;99.90;;;;;;4162012;28;20763;-59
2024/03/09 01:21:46;;;;;;;34.73;19.97;;;3.90;99.90;;;;;;4162773;28;20083;-60
2024/03/09 01:23:48;;;;;;;33.53;18.83;;;3.80;99.90;;;;;;4161454;28;20336;-60
2024/03/09 01:25:52;;;;;;;33.90;18.83;;;3.90;99.90;;;;;;4162525;28;20308;-61
2024/03/09 01:27:53;;;;;;;30.47;17.40;;;3.90;99.90;;;;;;4161321;28;20600;-56
2024/03/09 01:29:59;;;;;;;30.70;16.87;;;3.80;99.90;;;;;;4162663;28;20271;-60
2024/03/09 01:32:03;;;;;;;29.30;15.93;;;3.80;99.90;;;;;;4162235;28;20312;-61
2024/03/09 01:34:09;;;;;;;28.73;15.57;;;3.70;99.90;;;;;;4163278;28;20385;-61
2024/03/09 01:36:10;;;;;;;30.13;16.97;;;3.70;99.90;;;;;;4161350;28;20344;-60
2024/03/09 01:38:17;;;;;;;26.90;15.70;;;3.70;99.90;;;;;;4161758;28;20267;-60
2024/03/09 01:40:18;;;;;;;27.93;16.90;;;3.60;99.90;;;;;;4160928;28;20321;-57
2024/03/09 01:42:21;;;;;;;24.57;15.53;;;3.60;99.90;;;;;;4163142;28;20412;-59
2024/03/09 01:44:22;;;;;;;29.67;16.23;;;3.60;99.90;;;;;;4143682;28;20322;-60
2024/03/09 01:46:24;;;;;;;25.60;14.77;;;3.60;99.90;;;;;;4161445;28;20313;-61
2024/03/09 01:48:26;;;;;;;30.90;16.77;;;3.60;99.90;;;;;;4161772;28;20678;-59
2024/03/09 01:50:27;;;;;;;26.97;15.47;;;3.50;99.90;;;;;;4162577;28;20295;-61
2024/03/09 01:52:31;;;;;;;33.40;17.07;;;3.50;99.90;;;;;;4160474;28;20397;-59
2024/03/09 01:54:34;;;;;;;37.63;18.37;;;3.40;99.90;;;;;;4161912;28;20259;-61
2024/03/09 01:56:39;;;;;;;35.93;18.97;;;3.40;99.90;;;;;;4161229;28;20402;-61
2024/03/09 01:58:41;;;;;;;37.43;19.77;;;3.40;99.90;;;;;;4145842;28;20272;-60
2024/03/09 02:00:43;;;;;;;32.30;18.63;;;3.40;99.90;;;;;;4146129;28;20259;-61
2024/03/09 02:02:45;;;;;;;37.23;19.40;;;3.40;99.90;;;;;;4144055;28;20260;-57
2024/03/09 02:04:47;;;;;;;38.10;20.40;;;3.40;99.90;;;;;;4152084;28;20324;-60
2024/03/09 02:06:51;;;;;;;36.43;19.60;;;3.40;99.90;;;;;;4160807;28;20329;-60
2024/03/09 02:08:58;;;;;;;34.97;17.97;;;3.40;99.90;;;;;;4162672;28;20321;-59
2024/03/09 02:10:59;;;;;;;32.57;17.33;;;3.40;99.90;;;;;;4161129;28;20286;-57
2024/03/09 02:13:02;;;;;;;27.13;15.83;;;3.40;99.90;;;;;;4162611;28;20298;-60
2024/03/09 02:15:05;;;;;;;29.30;16.40;;;3.50;99.90;;;;;;4161662;28;20271;-55
2024/03/09 02:17:09;;;;;;;28.73;15.93;;;3.40;99.90;;;;;;4161976;28;20266;-59
2024/03/09 02:19:14;;;;;;;26.07;15.03;;;3.50;99.90;;;;;;4161746;28;20340;-60
2024/03/09 02:21:16;;;;;;;28.77;16.23;;;3.40;99.90;;;;;;4162507;28;20274;-61
2024/03/09 02:23:26;;;;;;;28.60;15.43;;;3.50;99.90;;;;;;4161331;28;20317;-54
2024/03/09 02:25:27;;;;;;;30.73;16.20;;;3.50;99.90;;;;;;4162373;28;20885;-62
2024/03/09 02:27:28;;;;;;;25.70;15.07;;;3.40;99.90;;;;;;4159994;28;20713;-59
2024/03/09 02:29:29;;;;;;;28.23;15.73;;;3.40;99.90;;;;;;4161504;28;20279;-52
2024/03/09 02:31:31;;;;;;;30.70;16.33;;;3.50;99.90;;;;;;4160168;28;20303;-60
2024/03/09 02:33:33;;;;;;;29.20;15.77;;;3.50;99.90;;;;;;4162060;28;20274;-57
2024/03/09 02:35:34;;;;;;;27.00;15.53;;;3.50;99.90;;;;;;4161830;28;20243;-57
2024/03/09 02:37:35;;;;;;;25.90;15.13;;;3.50;99.90;;;;;;4160484;28;20262;-57
2024/03/09 02:39:36;;;;;;;28.30;14.70;;;3.50;99.90;;;;;;4161399;28;20335;-57
2024/03/09 02:41:38;;;;;;;26.83;14.77;;;3.60;99.90;;;;;;4143234;28;20624;-56
2024/03/09 02:43:39;;;;;;;30.13;16.83;;;3.60;99.90;;;;;;4161488;28;20271;-60
2024/03/09 02:45:42;;;;;;;26.10;14.80;;;3.60;99.90;;;;;;4160388;28;20341;-60
2024/03/09 02:47:43;;;;;;;27.60;14.87;;;3.60;99.90;;;;;;4162074;28;20705;-60
2024/03/09 02:49:44;;;;;;;23.53;14.37;;;3.60;99.90;;;;;;4161125;28;20283;-54
2024/03/09 02:51:47;;;;;;;25.00;14.87;;;3.60;99.90;;;;;;4161233;28;20763;-59
2024/03/09 02:53:51;;;;;;;27.50;14.00;;;3.70;99.90;;;;;;4160347;28;20321;-60
2024/03/09 02:55:53;;;;;;;23.27;14.10;;;3.70;99.90;;;;;;4161543;28;20333;-60
2024/03/09 02:57:55;;;;;;;24.07;13.93;;;3.70;99.90;;;;;;4160673;28;20275;-53
2024/03/09 02:59:56;;;;;;;24.53;14.17;;;3.70;99.90;;;;;;4161013;28;20270;-61
2024/03/09 03:02:02;;;;;;;21.60;12.53;;;3.70;99.90;;;;;;4159569;28;20660;-58
2024/03/09 03:04:03;;;;;;;25.37;14.00;;;3.70;99.90;;;;;;4161426;28;20262;-55
2024/03/09 03:06:05;;;;;;;27.40;15.10;;;3.70;99.90;;;;;;4159141;28;20313;-57
2024/03/09 03:08:06;;;;;;;27.63;14.90;;;3.70;99.90;;;;;;4160558;28;20747;-58
2024/03/09 03:10:10;;;;;;;27.60;15.53;;;3.70;99.90;;;;;;4160651;28;20263;-61
2024/03/09 03:12:12;;;;;;;26.60;15.23;;;3.70;99.90;;;;;;4160214;28;20324;-58
2024/03/09 03:14:15;;;;;;;25.87;15.17;;;3.60;99.90;;;;;;4160568;28;20266;-62
2024/03/09 03:16:31;;;;;;;36.67;20.47;;;3.60;99.90;;;;;;4160223;28;20329;-63
2024/03/09 03:18:33;;;;;;;129.03;69.70;;;3.70;99.90;;;;;;4161279;28;20336;-61
2024/03/09 03:20:35;;;;;;;137.83;74.10;;;3.60;99.90;;;;;;4159748;28;20278;-58
2024/03/09 03:22:39;;;;;;;94.77;54.67;;;3.60;99.90;;;;;;4161277;28;20666;-56
2024/03/09 03:24:40;;;;;;;70.00;39.80;;;3.60;99.90;;;;;;4160305;28;20786;-58
2024/03/09 03:26:41;;;;;;;51.67;28.33;;;3.60;99.90;;;;;;4161277;28;20282;-59
2024/03/09 03:28:49;;;;;;;102.53;53.67;;;3.60;99.90;;;;;;4159946;28;20278;-61
2024/03/09 03:30:51;;;;;;;44.00;24.27;;;3.60;99.90;;;;;;4161620;28;20364;-56
2024/03/09 03:32:53;;;;;;;55.47;31.50;;;3.60;99.90;;;;;;4159878;28;20763;-56
2024/03/09 03:34:54;;;;;;;52.07;28.67;;;3.60;99.90;;;;;;4161560;28;20262;-60
2024/03/09 03:36:55;;;;;;;35.70;21.03;;;3.60;99.90;;;;;;4159331;28;20631;-60
2024/03/09 03:38:56;;;;;;;50.10;27.10;;;3.60;99.90;;;;;;4161448;28;20285;-61
2024/03/09 03:40:58;;;;;;;117.93;58.53;;;3.60;99.90;;;;;;4158766;28;20313;-60
2024/03/09 03:42:59;;;;;;;125.00;62.03;;;3.50;99.90;;;;;;4159910;28;20275;-61
2024/03/09 03:45:00;;;;;;;83.00;42.00;;;3.50;99.90;;;;;;4159817;28;20262;-57
2024/03/09 03:47:02;;;;;;;62.57;33.67;;;3.50;99.90;;;;;;4160007;28;20309;-61
2024/03/09 03:49:03;;;;;;;39.53;22.90;;;3.50;99.90;;;;;;4161114;28;20785;-60
2024/03/09 03:51:07;;;;;;;38.00;20.90;;;3.50;99.90;;;;;;4159939;28;20298;-61
2024/03/09 03:53:09;;;;;;;28.90;18.00;;;3.50;99.90;;;;;;4160609;28;20262;-59
2024/03/09 03:55:14;;;;;;;27.63;16.23;;;3.50;99.90;;;;;;4159991;28;21042;-58
2024/03/09 03:57:15;;;;;;;31.10;15.93;;;3.50;99.90;;;;;;4160784;28;20332;-58
2024/03/09 03:59:16;;;;;;;27.73;15.00;;;3.50;99.90;;;;;;4160200;28;20308;-53
2024/03/09 04:01:18;;;;;;;25.67;14.27;;;3.50;99.90;;;;;;4159989;28;20316;-56
2024/03/09 04:03:22;;;;;;;24.97;13.90;;;3.50;99.90;;;;;;4159447;28;20286;-61
2024/03/09 04:05:24;;;;;;;24.57;14.37;;;3.50;99.90;;;;;;4160512;28;20275;-61
2024/03/09 04:07:25;;;;;;;23.60;13.10;;;3.50;99.90;;;;;;4159012;28;20747;-60
2024/03/09 04:09:27;;;;;;;21.10;13.07;;;3.50;99.90;;;;;;4161434;28;20275;-60
2024/03/09 04:11:33;;;;;;;22.03;13.67;;;3.50;99.90;;;;;;4159058;28;20303;-59
2024/03/09 04:13:34;;;;;;;27.20;13.50;;;3.50;99.90;;;;;;4160673;28;20290;-56
2024/03/09 04:15:35;;;;;;;26.67;14.37;;;3.50;99.90;;;;;;4161011;28;20263;-55
2024/03/09 04:17:36;;;;;;;23.50;13.23;;;3.50;99.90;;;;;;4164420;28;20270;-62
2024/03/09 04:19:38;;;;;;;23.20;12.93;;;3.50;99.90;;;;;;4163017;28;20270;-60
2024/03/09 04:21:40;;;;;;;21.10;11.50;;;3.50;99.90;;;;;;4163085;28;20308;-61
2024/03/09 04:23:42;;;;;;;24.93;12.37;;;3.40;99.90;;;;;;4163116;28;20643;-60
2024/03/09 04:25:46;;;;;;;22.23;12.97;;;3.40;99.90;;;;;;4163650;28;20328;-61
2024/03/09 04:27:50;;;;;;;22.07;13.03;;;3.40;99.90;;;;;;4163252;28;20278;-61
2024/03/09 04:29:53;;;;;;;22.40;11.87;;;3.40;99.90;;;;;;4162288;28;20332;-63
2024/03/09 04:31:58;;;;;;;21.10;11.37;;;3.40;99.90;;;;;;4164364;28;20298;-59
2024/03/09 04:34:01;;;;;;;18.30;11.50;;;3.40;99.90;;;;;;4145132;28;20326;-62
2024/03/09 04:36:06;;;;;;;21.20;11.03;;;3.40;99.90;;;;;;4163627;28;20291;-54
2024/03/09 04:38:08;;;;;;;20.23;11.37;;;3.40;99.90;;;;;;4162503;28;20774;-59
2024/03/09 04:40:15;;;;;;;20.57;11.80;;;3.40;99.90;;;;;;4163352;28;20309;-61
2024/03/09 04:42:17;;;;;;;21.07;12.03;;;3.40;99.90;;;;;;4162527;28;20275;-61
2024/03/09 04:44:18;;;;;;;23.47;12.40;;;3.40;99.90;;;;;;4163483;28;20267;-60
2024/03/09 04:46:19;;;;;;;22.37;11.60;;;3.40;99.90;;;;;;4162778;28;20282;-61
2024/03/09 04:48:20;;;;;;;20.17;11.47;;;3.40;99.90;;;;;;4164257;28;20316;-60
2024/03/09 04:50:22;;;;;;;20.47;12.27;;;3.50;99.90;;;;;;4162932;28;20266;-61
2024/03/09 04:52:23;;;;;;;22.03;11.27;;;3.50;99.90;;;;;;4162583;28;20298;-61
2024/03/09 04:54:24;;;;;;;19.80;11.67;;;3.50;99.90;;;;;;4162091;28;20305;-60
2024/03/09 04:56:25;;;;;;;18.73;11.33;;;3.50;99.90;;;;;;4163451;28;20305;-58
2024/03/09 04:58:27;;;;;;;21.83;12.50;;;3.50;99.90;;;;;;4161752;28;20354;-55
2024/03/09 05:00:31;;;;;;;21.20;11.30;;;3.50;99.90;;;;;;4163071;28;20259;-58
2024/03/09 05:02:32;;;;;;;17.77;10.57;;;3.60;99.90;;;;;;4161710;28;20275;-55
2024/03/09 05:04:34;;;;;;;25.50;12.00;;;3.60;99.90;;;;;;4161706;28;21009;-62
2024/03/09 05:06:39;;;;;;;22.50;11.53;;;3.60;99.90;;;;;;4162501;28;20348;-58
2024/03/09 05:08:44;;;;;;;18.07;10.67;;;3.60;99.90;;;;;;4159224;28;20278;-55
2024/03/09 05:10:45;;;;;;;19.40;11.40;;;3.60;99.90;;;;;;4161521;28;21135;-60
2024/03/09 05:12:53;;;;;;;20.00;11.37;;;3.60;99.90;;;;;;4161501;28;20663;-54
2024/03/09 05:14:58;;;;;;;21.33;11.40;;;3.60;99.90;;;;;;4162133;28;20271;-59
2024/03/09 05:16:59;;;;;;;20.70;12.13;;;3.60;99.90;;;;;;4160803;28;20274;-55
2024/03/09 05:19:01;;;;;;;20.93;12.10;;;3.70;99.90;;;;;;4163106;28;20751;-57
2024/03/09 05:21:03;;;;;;;19.10;11.17;;;3.70;99.90;;;;;;4162296;28;20753;-56
2024/03/09 05:23:06;;;;;;;22.00;11.20;;;3.80;99.90;;;;;;4162506;28;20755;-60
2024/03/09 05:25:11;;;;;;;20.00;10.93;;;3.80;99.90;;;;;;4160791;28;20824;-60
2024/03/09 05:27:12;;;;;;;23.63;10.93;;;3.80;99.90;;;;;;4161555;28;20754;-61
2024/03/09 05:29:13;;;;;;;17.80;10.37;;;3.80;99.90;;;;;;4160906;28;20727;-59
2024/03/09 05:31:30;;;;;;;18.93;11.40;;;3.90;99.90;;;;;;4161903;28;20286;-58
2024/03/09 05:33:31;;;;;;;19.90;10.93;;;3.90;99.90;;;;;;4160275;28;20996;-60
2024/03/09 05:35:36;;;;;;;22.60;12.77;;;4.00;99.90;;;;;;4163038;28;20275;-64
2024/03/09 05:37:39;;;;;;;24.77;13.73;;;4.00;99.90;;;;;;4161544;28;20651;-54
2024/03/09 05:39:41;;;;;;;25.90;13.40;;;4.00;99.90;;;;;;4161306;28;20757;-60
2024/03/09 05:41:42;;;;;;;25.73;13.37;;;4.00;99.90;;;;;;4160769;28;20755;-60
2024/03/09 05:43:46;;;;;;;27.90;14.57;;;4.10;99.90;;;;;;4143468;28;20318;-60
2024/03/09 05:45:48;;;;;;;23.97;14.20;;;4.10;99.90;;;;;;4162440;28;20260;-59
2024/03/09 05:47:54;;;;;;;25.07;13.50;;;4.20;99.90;;;;;;4161521;28;20445;-58
2024/03/09 05:49:55;;;;;;;27.87;12.97;;;4.10;99.90;;;;;;4161364;28;20316;-60
2024/03/09 05:51:56;;;;;;;44.40;18.43;;;4.10;99.90;;;;;;4160768;28;20099;-56
2024/03/09 05:53:58;;;;;;;25.60;14.80;;;4.20;99.90;;;;;;4162319;28;20301;-57
2024/03/09 05:55:59;;;;;;;30.77;16.57;;;4.20;99.90;;;;;;4160626;28;20317;-59
2024/03/09 05:58:01;;;;;;;32.33;17.50;;;4.20;99.90;;;;;;4161293;28;20087;-60
2024/03/09 06:00:05;;;;;;;33.90;18.37;;;4.20;99.90;;;;;;4159593;28;20616;-56
2024/03/09 06:02:07;;;;;;;34.30;21.70;;;4.20;99.90;;;;;;4160630;28;20282;-53
2024/03/09 06:04:08;;;;;;;39.70;23.37;;;4.70;99.90;;;;;;4160271;28;20282;-55
2024/03/09 06:06:11;;;;;;;46.03;23.00;;;5.20;99.90;;;;;;4161963;28;20274;-56
2024/03/09 06:08:12;;;;;;;38.53;21.17;;;5.80;99.90;;;;;;4159488;28;21174;-62
2024/03/09 06:10:16;;;;;;;36.87;18.03;;;6.40;99.90;;;;;;4160644;28;20444;-57
2024/03/09 06:12:18;;;;;;;30.53;17.60;;;7.10;99.90;;;;;;4158942;28;20050;-59
2024/03/09 06:14:20;;;;;;;27.50;16.97;;;7.70;99.90;;;;;;4161134;28;20075;-60
2024/03/09 06:16:22;;;;;;;27.83;16.50;;;8.40;99.90;;;;;;4160161;28;20045;-61
2024/03/09 06:18:24;;;;;;;22.40;14.77;;;9.10;99.90;;;;;;4160606;28;20086;-59
2024/03/09 06:20:28;;;;;;;21.93;12.43;;;9.70;99.90;;;;;;4160977;28;20091;-58
2024/03/09 06:22:34;;;;;;;19.50;11.93;;;10.20;99.90;;;;;;4160350;28;20037;-57
2024/03/09 06:24:35;;;;;;;22.97;13.60;;;10.80;99.90;;;;;;4161605;28;20098;-58
2024/03/09 06:26:37;;;;;;;16.43;11.70;;;11.20;99.90;;;;;;4159579;28;20049;-59
2024/03/09 06:28:43;;;;;;;16.27;10.33;;;11.50;99.90;;;;;;4160129;28;20033;-61
2024/03/09 06:30:45;;;;;;;18.13;10.47;;;11.60;99.90;;;;;;4159364;28;20176;-64
2024/03/09 06:32:49;;;;;;;15.77;10.23;;;11.80;99.90;;;;;;4161525;28;20034;-59
2024/03/09 06:34:50;;;;;;;14.80;10.80;;;12.20;99.90;;;;;;4158458;28;20091;-58
2024/03/09 06:36:55;;;;;;;19.50;10.97;;;12.40;99.90;;;;;;4160369;28;20103;-61
2024/03/09 06:38:56;;;;;;;16.67;11.03;;;12.60;99.90;;;;;;4159590;28;20109;-59
2024/03/09 06:40:57;;;;;;;16.70;10.47;;;12.70;99.90;;;;;;4175888;28;20037;-62
2024/03/09 06:43:00;;;;;;;18.33;11.07;;;12.70;99.90;;;;;;4159679;28;20029;-55
2024/03/09 06:45:01;;;;;;;17.00;10.63;;;12.80;99.90;;;;;;4160657;28;20064;-56
2024/03/09 06:47:06;;;;;;;13.07;9.30;;;12.90;99.90;;;;;;4159472;28;20096;-59
2024/03/09 06:49:08;;;;;;;14.27;8.80;;;13.10;99.90;;;;;;4161125;28;20079;-57
2024/03/09 06:51:11;;;;;;;14.40;9.77;;;13.30;99.90;;;;;;4159503;28;20441;-61
2024/03/09 06:53:13;;;;;;;12.80;8.90;;;12.80;99.90;;;;;;4158597;28;20143;-62
2024/03/09 06:55:14;;;;;;;14.90;9.77;;;12.50;99.90;;;;;;4158955;28;20042;-61
2024/03/09 06:57:17;;;;;;;12.93;8.83;;;12.20;99.90;;;;;;4159566;28;20045;-63
2024/03/09 06:59:19;;;;;;;12.90;9.77;;;12.00;99.90;;;;;;4160689;28;20025;-61
2024/03/09 07:01:21;;;;;;;12.30;8.23;;;11.70;99.90;;;;;;4160118;28;20033;-55
2024/03/09 07:03:23;;;;;;;12.67;8.83;;;11.60;99.90;;;;;;4159274;28;20457;-58
2024/03/09 07:05:28;;;;;;;13.10;9.00;;;11.70;99.90;;;;;;4158550;28;20067;-62
2024/03/09 07:07:30;;;;;;;13.60;8.43;;;11.80;99.90;;;;;;4159215;28;20092;-57
2024/03/09 07:09:31;;;;;;;12.83;9.10;;;11.90;99.90;;;;;;4158289;28;20038;-56
2024/03/09 07:11:33;;;;;;;11.83;8.60;;;11.90;99.90;;;;;;4160396;28;20091;-61
2024/03/09 07:13:35;;;;;;;13.23;8.60;;;12.30;99.90;;;;;;4158411;28;20037;-55
2024/03/09 07:15:37;;;;;;;13.37;8.67;;;12.50;99.90;;;;;;4161600;28;20034;-60
2024/03/09 07:17:38;;;;;;;11.83;8.57;;;12.50;99.90;;;;;;4158491;28;20045;-56
2024/03/09 07:19:40;;;;;;;11.10;8.90;;;12.60;99.90;;;;;;4161020;28;20860;-57
2024/03/09 07:21:42;;;;;;;12.87;8.00;;;12.80;99.90;;;;;;4158661;28;20053;-62
2024/03/09 07:23:43;;;;;;;14.23;8.57;;;13.00;99.90;;;;;;4161150;28;20034;-63
2024/03/09 07:25:44;;;;;;;12.70;8.40;;;13.20;99.90;;;;;;4159650;28;20087;-62
2024/03/09 07:27:48;;;;;;;11.10;8.50;;;13.60;99.90;;;;;;4159477;28;20037;-62
2024/03/09 07:29:50;;;;;;;11.97;8.03;;;14.00;99.90;;;;;;4159525;28;20033;-56
2024/03/09 07:31:51;;;;;;;10.93;8.27;;;14.10;99.90;;;;;;4160151;28;20033;-58
2024/03/09 07:33:53;;;;;;;9.87;7.40;;;14.00;99.90;;;;;;4159399;28;20128;-59
2024/03/09 07:35:56;;;;;;;12.20;8.27;;;13.80;99.90;;;;;;4159623;28;20088;-61
2024/03/09 07:38:00;;;;;;;12.47;8.67;;;13.70;99.90;;;;;;4159659;28;20033;-62
2024/03/09 07:40:02;;;;;;;12.43;9.03;;;13.90;99.90;;;;;;4158263;28;20477;-58
2024/03/09 07:42:03;;;;;;;12.90;8.77;;;14.10;99.90;;;;;;4157493;28;20498;-58
2024/03/09 07:44:06;;;;;;;8.27;6.17;;;14.20;99.90;;;;;;4159208;28;20802;-60
2024/03/09 07:46:07;;;;;;;7.77;5.77;;;14.20;99.90;;;;;;4159765;28;20103;-56
2024/03/09 07:48:10;;;;;;;8.73;6.13;;;14.10;99.90;;;;;;4141263;28;20038;-60
2024/03/09 07:50:16;;;;;;;11.80;7.10;;;13.50;99.90;;;;;;4161506;28;20049;-56
2024/03/09 07:52:18;;;;;;;10.77;7.83;;;12.80;99.90;;;;;;4163340;28;20073;-62
2024/03/09 07:54:19;;;;;;;14.43;8.67;;;12.30;99.90;;;;;;4145867;28;20617;-61
2024/03/09 07:56:21;;;;;;;11.23;8.17;;;12.00;99.90;;;;;;4162255;28;20041;-62
2024/03/09 07:58:22;;;;;;;13.67;8.37;;;11.70;99.90;;;;;;4164668;28;20034;-59
2024/03/09 08:00:27;;;;;;;14.03;8.60;;;11.70;99.90;;;;;;4147247;28;20200;-60
2024/03/09 08:02:28;;;;;;;14.70;9.07;;;12.00;99.90;;;;;;4161417;28;20042;-57
2024/03/09 08:04:29;;;;;;;11.13;7.93;;;11.70;99.90;;;;;;4161327;28;20519;-57
2024/03/09 08:06:31;;;;;;;13.63;8.97;;;11.60;99.90;;;;;;4163045;28;20113;-57
2024/03/09 08:08:32;;;;;;;15.20;9.83;;;11.70;99.90;;;;;;4160502;28;20547;-62
2024/03/09 08:10:33;;;;;;;14.77;10.17;;;11.70;99.90;;;;;;4162276;28;20080;-57
2024/03/09 08:12:35;;;;;;;16.63;9.73;;;11.30;99.90;;;;;;4163284;28;20414;-57
2024/03/09 08:14:36;;;;;;;15.00;8.97;;;10.80;99.90;;;;;;4162709;28;20045;-59
2024/03/09 08:16:39;;;;;;;16.53;10.80;;;10.60;99.90;;;;;;4163116;28;20179;-59
2024/03/09 08:18:41;;;;;;;18.30;12.13;;;10.60;99.90;;;;;;4162758;28;20113;-59
2024/03/09 08:20:42;;;;;;;19.60;12.50;;;10.40;99.90;;;;;;4163480;28;20034;-60
2024/03/09 08:22:45;;;;;;;18.90;11.83;;;10.20;99.90;;;;;;4161901;28;20045;-60
2024/03/09 08:24:46;;;;;;;18.33;10.87;;;10.40;99.90;;;;;;4163526;28;20033;-58
2024/03/09 08:26:48;;;;;;;16.50;10.17;;;10.40;99.90;;;;;;4162110;28;20391;-69
2024/03/09 08:28:49;;;;;;;15.53;10.30;;;10.20;99.90;;;;;;4163089;28;20041;-63
2024/03/09 08:30:50;;;;;;;15.77;9.47;;;10.10;99.90;;;;;;4161423;28;20477;-65
2024/03/09 08:32:58;;;;;;;15.30;9.97;;;10.00;99.90;;;;;;4162594;28;20049;-62
2024/03/09 08:34:59;;;;;;;16.70;10.47;;;9.80;99.90;;;;;;4162894;28;20021;-58
2024/03/09 08:37:03;;;;;;;15.93;11.13;;;9.60;99.90;;;;;;4162432;28;20037;-62
2024/03/09 08:39:05;;;;;;;16.63;10.50;;;9.50;99.90;;;;;;4161707;28;20045;-58
2024/03/09 08:41:06;;;;;;;18.17;11.27;;;9.40;99.90;;;;;;4161071;28;20103;-60
2024/03/09 08:43:07;;;;;;;18.30;10.60;;;9.30;99.90;;;;;;4161980;28;20113;-62
2024/03/09 08:45:09;;;;;;;15.87;9.93;;;9.50;99.90;;;;;;4162156;28;20033;-62
2024/03/09 08:47:10;;;;;;;14.83;9.40;;;9.70;99.90;;;;;;4162377;28;20049;-60
2024/03/09 08:49:13;;;;;;;16.50;9.83;;;9.80;99.90;;;;;;4160414;28;21005;-57
2024/03/09 08:51:15;;;;;;;14.33;9.10;;;9.50;99.90;;;;;;4162191;28;20096;-60
2024/03/09 08:53:17;;;;;;;14.27;8.57;;;9.80;99.90;;;;;;4161313;28;20107;-66
2024/03/09 08:55:18;;;;;;;13.63;8.13;;;9.90;99.90;;;;;;4143552;28;20038;-60
2024/03/09 08:57:19;;;;;;;12.17;8.13;;;9.90;99.90;;;;;;4144542;28;20049;-65
2024/03/09 08:59:22;;;;;;;16.77;9.70;;;9.90;99.90;;;;;;4146532;28;20034;-60
2024/03/09 09:01:23;;;;;;;17.27;11.43;;;9.80;99.90;;;;;;4144636;28;20104;-54
2024/03/09 09:03:25;;;;;;;15.83;8.60;;;9.60;99.90;;;;;;4156125;28;20096;-63
2024/03/09 09:05:29;;;;;;;12.63;9.17;;;9.50;99.90;;;;;;4161180;28;20171;-61
2024/03/09 09:07:30;;;;;;;13.97;9.23;;;9.40;99.90;;;;;;4161331;28;20033;-59
2024/03/09 09:09:32;;;;;;;15.70;9.17;;;9.30;99.90;;;;;;4160828;28;20432;-59
2024/03/09 09:11:35;;;;;;;14.93;9.23;;;9.40;99.90;;;;;;4161545;28;20055;-57
2024/03/09 09:13:37;;;;;;;11.70;7.80;;;9.40;99.90;;;;;;4160541;28;20078;-60
2024/03/09 09:15:39;;;;;;;14.13;8.77;;;9.60;99.90;;;;;;4161659;28;20084;-58
2024/03/09 09:17:40;;;;;;;12.63;8.27;;;9.60;99.90;;;;;;4160053;28;20041;-58
2024/03/09 09:19:41;;;;;;;13.13;7.10;;;9.40;99.90;;;;;;4160020;28;20446;-61
2024/03/09 09:21:43;;;;;;;12.53;7.73;;;9.30;99.90;;;;;;4162217;28;20478;-59
2024/03/09 09:23:45;;;;;;;13.23;8.00;;;9.20;99.90;;;;;;4160411;28;20135;-62
2024/03/09 09:25:46;;;;;;;13.33;7.23;;;9.00;99.90;;;;;;4161914;28;20064;-62
2024/03/09 09:27:48;;;;;;;11.60;7.47;;;9.00;99.90;;;;;;4160408;28;20518;-57
2024/03/09 09:29:49;;;;;;;12.33;7.10;;;9.10;99.90;;;;;;4162463;28;20025;-62
2024/03/09 09:31:51;;;;;;;11.23;7.10;;;9.10;99.90;;;;;;4160380;28;20371;-61
2024/03/09 09:33:52;;;;;;;9.30;6.07;;;9.00;99.90;;;;;;4161410;28;20511;-59
2024/03/09 09:35:54;;;;;;;11.10;6.73;;;9.00;99.90;;;;;;4160957;28;20033;-57
2024/03/09 09:37:57;;;;;;;10.13;6.23;;;9.00;99.90;;;;;;4162422;28;20083;-55
2024/03/09 09:39:59;;;;;;;16.07;7.83;;;9.30;99.90;;;;;;4159723;28;20120;-58
2024/03/09 09:42:00;;;;;;;12.97;7.27;;;9.60;99.90;;;;;;4161551;28;20103;-59
2024/03/09 09:44:08;;;;;;;10.10;5.53;;;9.80;99.90;;;;;;4159993;28;20096;-53
2024/03/09 09:46:12;;;;;;;28.83;11.77;;;10.00;99.90;;;;;;4144929;28;21105;-60
2024/03/09 09:48:14;;;;;;;17.63;7.97;;;10.00;99.90;;;;;;4155717;28;20045;-57
2024/03/09 09:50:18;;;;;;;32.80;14.03;;;10.20;99.90;;;;;;4159592;28;20082;-59
2024/03/09 09:52:23;;;;;;;11.77;5.20;;;10.50;99.90;;;;;;4159155;28;20403;-58
2024/03/09 09:54:29;;;;;;;12.97;6.40;;;10.80;99.90;;;;;;4160240;28;20088;-58
2024/03/09 09:56:30;;;;;;;9.60;5.70;;;11.10;99.90;;;;;;4161019;28;20102;-58
2024/03/09 09:58:31;;;;;;;21.50;7.97;;;11.20;99.90;;;;;;4161039;28;20029;-60
2024/03/09 10:00:32;;;;;;;7.70;3.97;;;11.20;99.90;;;;;;4161782;28;20034;-62
2024/03/09 10:02:34;;;;;;;5.90;3.53;;;11.30;99.90;;;;;;4159559;28;20041;-59
2024/03/09 10:04:38;;;;;;;4.33;3.30;;;11.50;99.90;;;;;;4161288;28;20029;-56
2024/03/09 10:06:39;;;;;;;5.87;4.17;;;11.20;99.90;;;;;;4159752;28;20045;-56
2024/03/09 10:08:51;;;;;;;3.77;3.23;;;11.00;99.90;;;;;;4160650;28;20041;-57
2024/03/09 10:10:52;;;;;;;4.23;3.40;;;11.00;99.90;;;;;;4158655;28;20041;-61
2024/03/09 10:13:11;;;;;;;10.30;5.97;;;10.90;99.90;;;;;;4161175;28;20045;-58
2024/03/09 10:15:16;;;;;;;5.53;3.83;;;10.80;99.90;;;;;;4160791;28;20466;-65
2024/03/09 10:17:20;;;;;;;6.23;3.97;;;10.80;99.90;;;;;;4161344;28;20399;-61
2024/03/09 10:19:21;;;;;;;7.90;4.83;;;10.90;99.90;;;;;;4160624;28;20126;-60
2024/03/09 10:21:32;;;;;;;96.33;33.63;;;10.80;99.90;;;;;;4161928;28;20091;-62
2024/03/09 10:23:34;;;;;;;8.27;4.97;;;10.80;99.90;;;;;;4159635;28;20091;-57
2024/03/09 10:25:36;;;;;;;40.57;12.97;;;10.80;99.90;;;;;;4160344;28;20528;-55
2024/03/09 10:27:38;;;;;;;7.50;5.10;;;11.20;99.90;;;;;;4160935;28;20179;-58
2024/03/09 10:29:40;;;;;;;9.13;5.03;;;11.30;99.90;;;;;;4144993;28;20034;-58